createdAt,value
2022-12-06T00:02:13.084Z,2.60
2022-12-06T00:04:39.933Z,2.60
2022-12-06T00:07:06.793Z,2.60
2022-12-06T00:09:34.056Z,2.60
2022-12-06T00:12:00.988Z,2.60
2022-12-06T00:14:27.873Z,2.60
2022-12-06T00:16:54.831Z,2.60
2022-12-06T00:19:23.390Z,2.60
2022-12-06T00:21:50.229Z,2.60
2022-12-06T00:24:19.857Z,2.60
2022-12-06T00:26:48.669Z,2.60
2022-12-06T00:29:24.764Z,2.60
2022-12-06T00:31:51.737Z,2.60
2022-12-06T00:34:18.818Z,2.60
2022-12-06T00:36:45.815Z,2.60
2022-12-06T00:39:14.774Z,2.60
2022-12-06T00:41:42.639Z,2.60
2022-12-06T00:44:10.261Z,2.60
2022-12-06T00:46:38.432Z,2.60
2022-12-06T00:49:07.142Z,2.70
2022-12-06T00:51:34.884Z,2.70
2022-12-06T00:54:02.413Z,2.70
2022-12-06T00:56:29.941Z,2.70
2022-12-06T00:58:56.967Z,2.70
2022-12-06T01:01:26.525Z,2.70
2022-12-06T01:04:15.396Z,2.60
2022-12-06T01:06:42.243Z,2.60
2022-12-06T01:09:10.486Z,2.60
2022-12-06T01:11:37.743Z,2.60
2022-12-06T01:14:04.734Z,2.60
2022-12-06T01:16:32.578Z,2.60
2022-12-06T01:19:01.494Z,2.60
2022-12-06T01:21:29.536Z,2.60
2022-12-06T01:23:56.811Z,2.60
2022-12-06T01:26:30.259Z,2.60
2022-12-06T01:28:58.924Z,2.60
2022-12-06T01:31:32.092Z,2.60
2022-12-06T01:34:02.571Z,2.60
2022-12-06T01:36:29.353Z,2.60
2022-12-06T01:38:58.128Z,2.60
2022-12-06T01:41:26.693Z,2.60
2022-12-06T01:43:54.502Z,2.60
2022-12-06T01:46:51.007Z,2.60
2022-12-06T01:49:26.471Z,2.60
2022-12-06T01:52:00.216Z,2.60
2022-12-06T01:54:27.609Z,2.50
2022-12-06T01:56:57.717Z,2.50
2022-12-06T01:59:25.897Z,2.50
2022-12-06T02:01:53.216Z,2.50
2022-12-06T02:04:21.523Z,2.40
2022-12-06T02:06:50.345Z,2.40
2022-12-06T02:09:18.195Z,2.40
2022-12-06T02:11:45.949Z,2.40
2022-12-06T02:14:18.065Z,2.40
2022-12-06T02:17:12.625Z,2.40
2022-12-06T02:19:51.614Z,2.40
2022-12-06T02:22:51.088Z,2.30
2022-12-06T02:25:51.567Z,2.30
2022-12-06T02:28:24.285Z,2.30
2022-12-06T02:31:06.258Z,2.20
2022-12-06T02:33:47.228Z,2.20
2022-12-06T02:36:46.268Z,2.30
2022-12-06T02:39:20.382Z,2.20
2022-12-06T02:42:33.295Z,2.20
2022-12-06T02:45:04.456Z,2.20
2022-12-06T02:47:36.333Z,2.10
2022-12-06T02:50:16.390Z,2.10
2022-12-06T02:52:47.113Z,2.10
2022-12-06T02:55:15.640Z,2.10
2022-12-06T02:57:46.672Z,2.10
2022-12-06T03:00:32.697Z,2.10
2022-12-06T03:03:38.090Z,2.10
2022-12-06T03:06:12.634Z,2.20
2022-12-06T03:09:03.010Z,2.20
2022-12-06T03:11:54.090Z,2.20
2022-12-06T03:14:26.438Z,2.20
2022-12-06T03:17:03.837Z,2.20
2022-12-06T03:19:32.407Z,2.30
2022-12-06T03:22:06.596Z,2.20
2022-12-06T03:24:36.132Z,2.20
2022-12-06T03:27:10.105Z,2.20
2022-12-06T03:29:45.283Z,2.20
2022-12-06T03:32:15.435Z,2.30
2022-12-06T03:34:47.330Z,2.30
2022-12-06T03:37:19.508Z,2.30
2022-12-06T03:39:59.385Z,2.30
2022-12-06T03:42:26.744Z,2.30
2022-12-06T03:44:53.887Z,2.30
2022-12-06T03:47:24.622Z,2.30
2022-12-06T03:49:58.940Z,2.30
2022-12-06T03:52:29.304Z,2.30
2022-12-06T03:54:56.499Z,2.30
2022-12-06T03:57:23.832Z,2.30
2022-12-06T03:59:50.628Z,2.30
2022-12-06T04:02:17.444Z,2.30
2022-12-06T04:04:44.273Z,2.30
2022-12-06T04:07:12.333Z,2.30
2022-12-06T04:10:08.081Z,2.40
2022-12-06T04:12:54.002Z,2.30
2022-12-06T04:15:22.421Z,2.40
2022-12-06T04:18:08.256Z,2.40
2022-12-06T04:20:53.741Z,2.30
2022-12-06T04:23:21.041Z,2.30
2022-12-06T04:25:47.779Z,2.30
2022-12-06T04:28:33.416Z,2.30
2022-12-06T04:31:21.978Z,2.40
2022-12-06T04:34:07.981Z,2.30
2022-12-06T04:36:53.572Z,2.40
2022-12-06T04:39:20.988Z,2.40
2022-12-06T04:42:07.062Z,2.40
2022-12-06T04:44:33.908Z,2.40
2022-12-06T04:47:01.188Z,2.40
2022-12-06T04:49:28.018Z,2.40
2022-12-06T04:51:55.572Z,2.50
2022-12-06T04:54:23.491Z,2.50
2022-12-06T04:56:50.322Z,2.50
2022-12-06T04:59:17.648Z,2.50
2022-12-06T05:01:44.411Z,2.50
2022-12-06T05:04:11.273Z,2.50
2022-12-06T05:06:38.140Z,2.50
2022-12-06T05:09:05.221Z,2.50
2022-12-06T05:11:33.173Z,2.50
2022-12-06T05:14:00.742Z,2.50
2022-12-06T05:16:28.066Z,2.60
2022-12-06T05:18:55.082Z,2.60
2022-12-06T05:21:23.719Z,2.50
2022-12-06T05:23:53.749Z,2.60
2022-12-06T05:26:22.897Z,2.60
2022-12-06T05:28:50.406Z,2.60
2022-12-06T05:31:17.609Z,2.50
2022-12-06T05:33:44.455Z,2.60
2022-12-06T05:36:14.877Z,2.60
2022-12-06T05:38:42.997Z,2.60
2022-12-06T05:41:11.494Z,2.60
2022-12-06T05:43:38.256Z,2.60
2022-12-06T05:46:05.266Z,2.60
2022-12-06T05:48:32.605Z,2.60
2022-12-06T05:50:59.386Z,2.60
2022-12-06T05:53:26.251Z,2.70
2022-12-06T05:55:53.088Z,2.70
2022-12-06T05:58:20.376Z,2.70
2022-12-06T06:00:51.243Z,2.70
2022-12-06T06:03:18.860Z,2.70
2022-12-06T06:05:47.607Z,2.70
2022-12-06T06:08:14.671Z,2.70
2022-12-06T06:10:41.617Z,2.70
2022-12-06T06:13:08.508Z,2.70
2022-12-06T06:15:35.311Z,2.70
2022-12-06T06:18:02.102Z,2.70
2022-12-06T06:20:28.934Z,2.70
2022-12-06T06:22:55.688Z,2.70
2022-12-06T06:25:22.480Z,2.80
2022-12-06T06:27:49.229Z,2.80
2022-12-06T06:30:16.097Z,2.80
2022-12-06T06:32:42.881Z,2.80
2022-12-06T06:35:09.857Z,2.70
2022-12-06T06:37:36.604Z,2.80
2022-12-06T06:40:04.493Z,2.90
2022-12-06T06:42:31.227Z,2.90
2022-12-06T06:44:58.043Z,2.80
2022-12-06T06:47:24.796Z,2.80
2022-12-06T06:49:51.571Z,2.90
2022-12-06T06:52:18.291Z,2.80
2022-12-06T06:54:45.100Z,2.90
2022-12-06T06:57:17.358Z,2.90
2022-12-06T06:59:45.565Z,2.90
2022-12-06T07:02:14.195Z,2.90
2022-12-06T07:04:41.154Z,2.90
2022-12-06T07:07:07.946Z,2.90
2022-12-06T07:09:34.964Z,2.90
2022-12-06T07:12:01.729Z,2.90
2022-12-06T07:14:28.535Z,2.90
2022-12-06T07:16:55.440Z,3.00
2022-12-06T07:19:22.347Z,3.00
2022-12-06T07:21:49.260Z,3.00
2022-12-06T07:24:16.005Z,3.00
2022-12-06T07:26:42.779Z,3.00
2022-12-06T07:29:09.545Z,3.00
2022-12-06T07:31:36.385Z,3.00
2022-12-06T07:34:03.575Z,3.10
2022-12-06T07:36:32.213Z,3.00
2022-12-06T07:39:00.251Z,3.00
2022-12-06T07:41:47.780Z,3.10
2022-12-06T07:44:34.647Z,3.10
2022-12-06T07:47:01.951Z,3.10
2022-12-06T07:49:29.188Z,3.10
2022-12-06T07:51:56.245Z,3.20
2022-12-06T07:54:24.118Z,3.20
2022-12-06T07:56:51.009Z,3.20
2022-12-06T07:59:17.850Z,3.20
2022-12-06T08:01:45.063Z,3.20
2022-12-06T08:04:12.072Z,3.20
2022-12-06T08:06:38.953Z,3.30
2022-12-06T08:09:06.825Z,3.30
2022-12-06T08:11:34.392Z,3.30
2022-12-06T08:14:01.133Z,3.30
2022-12-06T08:16:28.435Z,3.30
2022-12-06T08:18:56.129Z,3.40
2022-12-06T08:21:26.155Z,3.40
2022-12-06T08:23:54.378Z,3.40
2022-12-06T08:26:21.602Z,3.40
2022-12-06T08:28:48.396Z,3.50
2022-12-06T08:31:18.686Z,3.50
2022-12-06T08:33:45.540Z,3.60
2022-12-06T08:36:17.943Z,3.60
2022-12-06T08:38:45.105Z,3.60
2022-12-06T08:41:31.319Z,3.60
2022-12-06T08:43:59.382Z,3.60
2022-12-06T08:46:27.544Z,3.60
2022-12-06T08:48:54.905Z,3.70
2022-12-06T08:51:21.948Z,3.70
2022-12-06T08:53:48.776Z,3.70
2022-12-06T08:56:15.963Z,3.70
2022-12-06T08:58:43.157Z,3.80
2022-12-06T09:01:35.950Z,3.80
2022-12-06T09:04:06.798Z,3.80
2022-12-06T09:06:33.805Z,3.80
2022-12-06T09:09:00.594Z,3.90
2022-12-06T09:11:27.614Z,3.90
2022-12-06T09:13:54.395Z,3.90
2022-12-06T09:16:23.535Z,4.00
2022-12-06T09:18:51.582Z,4.00
2022-12-06T09:21:27.727Z,4.00
2022-12-06T09:23:56.582Z,4.10
2022-12-06T09:26:23.950Z,4.10
2022-12-06T09:28:51.596Z,4.10
2022-12-06T09:31:19.323Z,4.10
2022-12-06T09:33:46.932Z,4.10
2022-12-06T09:36:31.772Z,4.10
2022-12-06T09:39:19.678Z,4.20
2022-12-06T09:41:59.999Z,4.20
2022-12-06T09:44:52.872Z,4.30
2022-12-06T09:47:57.059Z,4.20
2022-12-06T09:51:01.372Z,4.30
2022-12-06T09:53:58.378Z,4.30
2022-12-06T09:56:27.859Z,4.40
2022-12-06T09:59:16.565Z,4.40
2022-12-06T10:02:10.657Z,4.40
2022-12-06T10:05:13.027Z,4.40
2022-12-06T10:08:03.790Z,4.40
2022-12-06T10:10:36.464Z,4.40
2022-12-06T10:13:21.483Z,4.40
2022-12-06T10:15:50.991Z,4.50
2022-12-06T10:19:06.081Z,4.50
2022-12-06T10:21:40.770Z,4.50
2022-12-06T10:24:23.639Z,4.60
2022-12-06T10:26:55.540Z,4.50
2022-12-06T10:29:57.623Z,4.50
2022-12-06T10:32:53.860Z,4.60
2022-12-06T10:35:39.334Z,4.60
2022-12-06T10:38:51.784Z,4.50
2022-12-06T10:41:33.130Z,4.50
2022-12-06T10:44:15.066Z,4.50
2022-12-06T10:47:06.709Z,4.50
2022-12-06T10:49:39.348Z,4.50
2022-12-06T10:52:18.233Z,4.60
2022-12-06T10:54:54.099Z,4.60
2022-12-06T10:57:27.438Z,4.60
2022-12-06T11:00:15.268Z,4.60
2022-12-06T11:03:38.138Z,4.60
2022-12-06T11:06:25.924Z,4.60
2022-12-06T11:08:59.526Z,4.60
2022-12-06T11:11:36.551Z,4.60
2022-12-06T11:14:31.471Z,4.60
2022-12-06T11:17:04.935Z,4.60
2022-12-06T11:19:38.620Z,4.60
2022-12-06T11:22:08.188Z,4.60
2022-12-06T11:24:48.261Z,4.60
2022-12-06T11:27:22.870Z,4.60
2022-12-06T11:29:50.991Z,4.60
2022-12-06T11:32:19.118Z,4.60
2022-12-06T11:34:48.101Z,4.60
2022-12-06T11:37:27.723Z,4.60
2022-12-06T11:40:08.239Z,4.60
2022-12-06T11:42:35.012Z,4.60
2022-12-06T11:45:10.974Z,4.60
2022-12-06T11:47:37.732Z,4.60
2022-12-06T11:50:16.793Z,4.60
2022-12-06T11:53:04.844Z,4.60
2022-12-06T11:55:44.146Z,4.60
2022-12-06T11:58:22.333Z,4.60
2022-12-06T12:01:11.067Z,4.60
2022-12-06T12:03:40.323Z,4.60
2022-12-06T12:06:36.708Z,4.60
2022-12-06T12:09:14.449Z,4.60
2022-12-06T12:11:42.108Z,4.60
2022-12-06T12:14:17.310Z,4.60
2022-12-06T12:16:48.313Z,4.60
2022-12-06T12:19:32.734Z,4.60
2022-12-06T12:22:13.093Z,4.60
2022-12-06T12:27:48.816Z,4.50
2022-12-06T12:30:15.612Z,4.50
2022-12-06T12:32:43.295Z,4.60
2022-12-06T12:35:22.837Z,4.50
2022-12-06T12:37:53.296Z,4.60
2022-12-06T12:40:48.716Z,4.50
2022-12-06T12:43:45.991Z,4.60
2022-12-06T12:46:20.829Z,4.60
2022-12-06T12:48:49.842Z,4.60
2022-12-06T12:51:29.610Z,4.50
2022-12-06T12:53:59.503Z,4.50
2022-12-06T12:56:26.583Z,4.50
2022-12-06T12:58:55.377Z,4.60
2022-12-06T13:01:25.015Z,4.60
2022-12-06T13:03:56.581Z,4.60
2022-12-06T13:06:26.402Z,4.60
2022-12-06T13:08:56.521Z,4.50
2022-12-06T13:11:23.305Z,4.60
2022-12-06T13:13:52.128Z,4.50
2022-12-06T13:16:30.653Z,4.50
2022-12-06T13:18:58.943Z,4.60
2022-12-06T13:21:42.920Z,4.50
2022-12-06T13:24:12.976Z,4.50
2022-12-06T13:27:01.997Z,4.60
2022-12-06T13:29:38.749Z,4.60
2022-12-06T13:32:22.637Z,4.60
2022-12-06T13:34:55.484Z,4.60
2022-12-06T13:37:50.912Z,4.50
2022-12-06T13:40:32.905Z,4.50
2022-12-06T13:43:05.147Z,4.50
2022-12-06T13:45:46.991Z,4.50
2022-12-06T13:48:25.746Z,4.50
2022-12-06T13:50:56.908Z,4.50
2022-12-06T13:53:26.487Z,4.40
2022-12-06T13:56:22.370Z,4.40
2022-12-06T13:58:52.561Z,4.40
2022-12-06T14:01:46.572Z,4.40
2022-12-06T14:06:57.516Z,4.30
2022-12-06T14:09:25.932Z,4.40
2022-12-06T14:11:53.324Z,4.40
2022-12-06T14:14:25.171Z,4.30
2022-12-06T14:16:55.885Z,4.40
2022-12-06T14:19:43.509Z,4.40
2022-12-06T14:22:18.491Z,4.30
2022-12-06T14:25:05.334Z,4.40
2022-12-06T14:27:35.519Z,4.40
2022-12-06T14:30:29.121Z,4.40
2022-12-06T14:32:58.135Z,4.40
2022-12-06T14:35:36.739Z,4.30
2022-12-06T14:38:30.372Z,4.30
2022-12-06T14:41:16.596Z,4.30
2022-12-06T14:43:47.227Z,4.30
2022-12-06T14:46:17.598Z,4.30
2022-12-06T14:49:03.620Z,4.30
2022-12-06T14:51:41.055Z,4.30
2022-12-06T14:54:27.253Z,4.20
2022-12-06T14:56:54.231Z,4.20
2022-12-06T15:00:03.060Z,4.20
2022-12-06T15:02:25.265Z,4.20
2022-12-06T15:04:52.542Z,4.20
2022-12-06T15:07:48.863Z,4.20
2022-12-06T15:10:21.698Z,4.20
2022-12-06T15:12:56.289Z,4.20
2022-12-06T15:15:38.219Z,4.20
2022-12-06T15:18:26.012Z,4.10
2022-12-06T15:20:55.899Z,4.10
2022-12-06T15:23:38.831Z,4.10
2022-12-06T15:26:08.521Z,4.10
2022-12-06T15:28:38.611Z,4.10
2022-12-06T15:31:13.750Z,4.10
2022-12-06T15:33:40.569Z,4.00
2022-12-06T15:36:07.433Z,4.10
2022-12-06T15:38:34.236Z,4.00
2022-12-06T15:41:01.070Z,4.00
2022-12-06T15:43:33.926Z,4.00
2022-12-06T15:46:03.887Z,4.00
2022-12-06T15:48:34.945Z,4.00
2022-12-06T15:51:02.387Z,4.00
2022-12-06T15:53:30.420Z,4.00
2022-12-06T15:55:57.212Z,4.00
2022-12-06T15:58:24.047Z,4.00
2022-12-06T16:00:50.926Z,4.00
2022-12-06T16:03:17.806Z,4.00
2022-12-06T16:05:44.679Z,4.00
2022-12-06T16:08:11.527Z,3.90
2022-12-06T16:11:10.232Z,3.90
2022-12-06T16:13:25.275Z,3.90
2022-12-06T16:15:52.979Z,3.90
2022-12-06T16:18:20.131Z,3.90
2022-12-06T16:20:47.532Z,3.90
2022-12-06T16:24:04.536Z,3.90
2022-12-06T16:26:23.707Z,3.90
2022-12-06T16:28:50.546Z,3.90
2022-12-06T16:31:17.353Z,3.90
2022-12-06T16:33:44.168Z,3.90
2022-12-06T16:36:12.281Z,3.90
2022-12-06T16:38:39.213Z,3.80
2022-12-06T16:41:28.270Z,3.80
2022-12-06T16:43:56.029Z,3.80
2022-12-06T16:46:37.765Z,3.90
2022-12-06T16:49:43.743Z,3.90
2022-12-06T16:51:53.028Z,3.90
2022-12-06T16:54:19.841Z,3.80
2022-12-06T16:56:46.840Z,3.90
2022-12-06T16:59:16.130Z,3.90
2022-12-06T17:01:54.175Z,3.90
2022-12-06T17:04:21.536Z,3.80
2022-12-06T17:06:48.932Z,3.80
2022-12-06T17:09:16.224Z,3.80
2022-12-06T17:12:01.933Z,3.80
2022-12-06T17:14:29.546Z,3.70
2022-12-06T17:16:57.212Z,3.70
2022-12-06T17:19:28.079Z,3.60
2022-12-06T17:21:55.209Z,3.60
2022-12-06T17:24:24.433Z,3.50
2022-12-06T17:26:51.302Z,3.60
2022-12-06T17:29:18.051Z,3.60
2022-12-06T17:31:45.008Z,3.70
2022-12-06T17:34:13.458Z,3.70
2022-12-06T17:36:40.880Z,3.60
2022-12-06T17:39:09.471Z,3.60
2022-12-06T17:41:55.127Z,3.50
2022-12-06T17:44:22.228Z,3.40
2022-12-06T17:46:49.333Z,3.40
2022-12-06T17:49:19.610Z,3.30
2022-12-06T17:51:46.821Z,3.30
2022-12-06T17:54:14.484Z,3.40
2022-12-06T17:56:44.176Z,3.40
2022-12-06T17:59:13.540Z,3.50
2022-12-06T18:04:29.676Z,3.50
2022-12-06T18:06:57.191Z,3.40
2022-12-06T18:09:24.378Z,3.40
2022-12-06T18:11:51.290Z,3.30
2022-12-06T18:14:18.749Z,3.30
2022-12-06T18:16:47.990Z,3.20
2022-12-06T18:19:18.228Z,3.10
2022-12-06T18:21:45.987Z,3.10
2022-12-06T18:24:24.752Z,3.00
2022-12-06T18:26:54.645Z,2.90
2022-12-06T18:29:23.693Z,2.80
2022-12-06T18:31:51.188Z,2.90
2022-12-06T18:34:18.477Z,2.90
2022-12-06T18:36:45.540Z,2.90
2022-12-06T18:39:16.175Z,2.90
2022-12-06T18:41:44.061Z,2.90
2022-12-06T18:44:11.856Z,2.80
2022-12-06T18:46:39.495Z,2.70
2022-12-06T18:49:06.766Z,2.70
2022-12-06T18:51:35.448Z,2.70
2022-12-06T18:54:04.966Z,2.70
2022-12-06T18:56:33.710Z,2.60
2022-12-06T18:59:02.118Z,2.60
2022-12-06T19:01:32.363Z,2.60
2022-12-06T19:04:00.927Z,2.60
2022-12-06T19:06:30.427Z,2.50
2022-12-06T19:09:01.026Z,2.60
2022-12-06T19:11:28.473Z,2.60
2022-12-06T19:14:00.195Z,2.60
2022-12-06T19:16:39.565Z,2.70
2022-12-06T19:19:15.464Z,2.70
2022-12-06T19:21:43.926Z,2.60
2022-12-06T19:24:12.910Z,2.70
2022-12-06T19:26:39.776Z,2.60
2022-12-06T19:29:06.589Z,2.70
2022-12-06T19:31:33.514Z,2.70
2022-12-06T19:34:00.718Z,2.60
2022-12-06T19:36:29.885Z,2.60
2022-12-06T19:38:58.262Z,2.60
2022-12-06T19:41:26.037Z,2.60
2022-12-06T19:44:11.414Z,2.60
2022-12-06T19:46:38.585Z,2.50
2022-12-06T19:49:07.735Z,2.50
2022-12-06T19:51:39.475Z,2.50
2022-12-06T19:54:07.705Z,2.50
2022-12-06T19:56:35.294Z,2.50
2022-12-06T19:59:11.400Z,2.40
2022-12-06T20:01:45.144Z,2.40
2022-12-06T20:04:23.527Z,2.40
2022-12-06T20:06:51.879Z,2.40
2022-12-06T20:09:20.185Z,2.50
2022-12-06T20:12:02.271Z,2.50
2022-12-06T20:14:47.770Z,2.60
2022-12-06T20:17:17.505Z,2.50
2022-12-06T20:19:49.143Z,2.40
2022-12-06T20:22:18.039Z,2.40
2022-12-06T20:24:45.003Z,2.30
2022-12-06T20:27:12.150Z,2.30
2022-12-06T20:29:40.188Z,2.30
2022-12-06T20:32:07.355Z,2.40
2022-12-06T20:34:34.861Z,2.30
2022-12-06T20:37:04.487Z,2.30
2022-12-06T20:39:34.901Z,2.30
2022-12-06T20:42:03.347Z,2.20
2022-12-06T20:44:30.325Z,2.20
2022-12-06T20:46:57.446Z,2.20
2022-12-06T20:49:24.470Z,2.10
2022-12-06T20:51:53.227Z,2.10
2022-12-06T20:54:20.879Z,2.10
2022-12-06T20:56:51.379Z,2.00
2022-12-06T20:59:18.361Z,2.00
2022-12-06T21:01:45.380Z,2.10
2022-12-06T21:04:13.575Z,2.10
2022-12-06T21:06:40.686Z,2.20
2022-12-06T21:09:07.590Z,2.30
2022-12-06T21:11:34.467Z,2.30
2022-12-06T21:14:01.230Z,2.30
2022-12-06T21:16:30.457Z,2.30
2022-12-06T21:19:03.761Z,2.30
2022-12-06T21:21:35.538Z,2.40
2022-12-06T21:24:08.088Z,2.40
2022-12-06T21:26:35.518Z,2.40
2022-12-06T21:29:03.195Z,2.50
2022-12-06T21:31:35.315Z,2.40
2022-12-06T21:34:02.948Z,2.50
2022-12-06T21:36:29.998Z,2.50
2022-12-06T21:38:57.914Z,2.50
2022-12-06T21:41:24.785Z,2.60
2022-12-06T21:43:51.584Z,2.50
2022-12-06T21:46:21.761Z,2.60
2022-12-06T21:48:55.449Z,2.60
2022-12-06T21:51:23.496Z,2.60
2022-12-06T21:53:50.619Z,2.50
2022-12-06T21:56:20.582Z,2.60
2022-12-06T21:58:48.040Z,2.60
2022-12-06T22:01:18.171Z,2.60
2022-12-06T22:03:48.951Z,2.60
2022-12-06T22:06:16.549Z,2.70
2022-12-06T22:08:44.560Z,2.70
2022-12-06T22:11:14.954Z,2.70
2022-12-06T22:13:42.182Z,2.70
2022-12-06T22:16:11.326Z,2.70
2022-12-06T22:18:45.024Z,2.80
2022-12-06T22:21:20.710Z,2.70
2022-12-06T22:23:48.340Z,2.70
2022-12-06T22:26:18.415Z,2.80
2022-12-06T22:28:45.794Z,2.80
2022-12-06T22:31:18.577Z,2.70
2022-12-06T22:33:46.378Z,2.70
2022-12-06T22:36:14.034Z,2.70
2022-12-06T22:38:41.449Z,2.70
2022-12-06T22:41:09.103Z,2.70
2022-12-06T22:43:36.578Z,2.70
2022-12-06T22:46:09.268Z,2.80
2022-12-06T22:48:36.372Z,2.80
2022-12-06T22:51:20.465Z,2.80
2022-12-06T22:53:52.810Z,2.80
2022-12-06T22:56:19.801Z,2.80
2022-12-06T22:58:47.474Z,2.80
2022-12-06T23:01:17.852Z,2.90
2022-12-06T23:03:49.672Z,2.90
2022-12-06T23:06:19.186Z,2.90
2022-12-06T23:08:46.598Z,3.00
2022-12-06T23:11:19.819Z,3.00
2022-12-06T23:13:47.009Z,3.00
2022-12-06T23:16:19.777Z,3.00
2022-12-06T23:18:46.916Z,3.00
2022-12-06T23:21:16.355Z,3.10
2022-12-06T23:23:47.288Z,3.20
2022-12-06T23:26:16.525Z,3.30
2022-12-06T23:28:44.860Z,3.20
2022-12-06T23:31:20.704Z,3.30
2022-12-06T23:33:47.811Z,3.30
2022-12-06T23:36:18.156Z,3.30
2022-12-06T23:38:45.087Z,3.40
2022-12-06T23:41:14.658Z,3.40
2022-12-06T23:43:42.151Z,3.40
2022-12-06T23:46:11.524Z,3.50
2022-12-06T23:48:38.961Z,3.50
2022-12-06T23:51:09.377Z,3.50
2022-12-06T23:53:36.521Z,3.50
2022-12-06T23:56:15.254Z,3.50
2022-12-06T23:58:43.410Z,3.50
